Cross Key, Florida
Current Conditions -  °F | °C
As of 1:58 AM on Sunday 26 Oct 2014 (Local Time) from KHST Reporting Station
Clear Clear  
Wind Chill: 67°   Ceiling: Unl
Heat Index: 67°   Visibility: 10mi
Dew Point: 64°   Wind: 6mph
Humidity: 88%   Direction: 320°NW
Pressure: 29.92"   Gusts: NA
Location:  25.2553°N, 80.3918°W
Report Text: KHST 260558Z AUTO 32005KT 10SM CLR 20/18 A2992 RMK AO2 SLP135 T01960175 10225 20196 57008
Loading
Personal Weather Stations






























Interactive Weather Map
Tropical Storm Tracking
New forecast layout! Learn more

10-Day Weather Forecast

Advertisements
Track Severe Weather on mobile